ENCN/KRS METAR and TAF weather

Enter ICAO airport designator
Station Type Date Time Source
ENCN METAR 2019/04/25 01:50 UTC NOAA

ENCN 250150Z AUTO 04011KT 9999 NCD 09/07 Q1010


Station Type Date Time Source
ENCN Decoded METAR 2019/04/25 01:50 UTC NOAA

Kristiansand / Kjevik, Norway (ENCN) 58-12N 008-05E 17M
Apr 24, 2019 - 09:50 PM EDT / 2019.04.25 0150 UTC
Wind: from the NE (040 degrees) at 13 MPH (11 KT):0
Visibility: greater than 7 mile(s):0
Temperature: 48 F (9 C)
Dew Point: 44 F (7 C)
Relative Humidity: 87%
Pressure (altimeter): 29.83 in. Hg (1010 hPa)
ob: ENCN 250150Z AUTO 04011KT 9999 NCD 09/07 Q1010
cycle: 2

Station Type Date Time Source
ENCN TAF 2016/05/06 12:39 UTC NOAA

TAF TAF ENCN 061100Z 0612/0712 14008KT 9999 FEW040

Example: see airport list